CheckWX is a tool to help pilots better visualize weather data.  It is not intended as a substitute for an official pre-flight weather briefing.

18:42:29 UTC

KSFY METAR
Tri-Township Airport
Savanna, Illinois, USA
Current

27 mins ago

KSFY 271815Z AUTO 00000KT 10SM OVC016 M01/M03 A3003 RMK AO2
Observed
Jan-27 @ 18:15 UTC
Visibility
10 SM
Flight Rules
MVFR
Cloud Levels
  • Overcast at 1,600' AGL
Temperature
-1°C / 30°F
Dewpoint
-3°C / 27°F
Humidity
86%
Altimeter
30.03" Hg
Pressure
1016.92 hPa
Previous

47 mins ago

KSFY 271755Z AUTO 00000KT 10SM OVC016 M01/M03 A3003 RMK AO2
Observed
Jan-27 @ 17:55 UTC
Visibility
10 SM
Flight Rules
MVFR
Cloud Levels
  • Overcast at 1,600' AGL
Temperature
-1°C / 30°F
Dewpoint
-3°C / 27°F
Humidity
86%
Altimeter
30.03" Hg
Pressure
1016.92 hPa
Previous

1 hour ago

KSFY 271735Z AUTO 00000KT 10SM OVC016 M01/M03 A3003 RMK AO2
Observed
Jan-27 @ 17:35 UTC
Visibility
10 SM
Flight Rules
MVFR
Cloud Levels
  • Overcast at 1,600' AGL
Temperature
-1°C / 30°F
Dewpoint
-3°C / 27°F
Humidity
86%
Altimeter
30.03" Hg
Pressure
1016.92 hPa